Time;durP1;ratioP1;P1;durP2;ratioP2;P2;SDS_P1;SDS_P2;PMS_P1;PMS_P2;Temp;Humidity;BMP_temperature;BMP_pressure;BME280_temperature;BME280_humidity;BME280_pressure;Samples;Min_cycle;Max_cycle;Signal;HPM_P1;HPM_P2
2022/02/12 00:01:42;;;;;;;20.87;11.87;;;5.40;48.30;;;;;;4980324;28;20266;-91
2022/02/12 00:04:08;;;;;;;29.63;12.33;;;5.30;47.10;;;;;;4980263;28;20183;-91
2022/02/12 00:06:36;;;;;;;30.17;11.17;;;5.10;46.90;;;;;;4977206;28;20186;-89
2022/02/12 00:09:03;;;;;;;24.53;11.33;;;5.00;48.00;;;;;;4977658;28;20275;-89
2022/02/12 00:11:30;;;;;;;22.97;11.43;;;4.90;50.40;;;;;;4976496;28;20267;-90
2022/02/12 00:13:56;;;;;;;25.47;12.40;;;4.80;54.20;;;;;;4978589;28;20180;-91
2022/02/12 00:16:21;;;;;;;25.67;11.43;;;5.00;56.90;;;;;;4983261;28;20183;-90
2022/02/12 00:18:47;;;;;;;24.93;12.20;;;4.90;55.70;;;;;;4977954;28;20231;-90
2022/02/12 00:21:13;;;;;;;27.07;12.27;;;4.90;56.10;;;;;;4996824;28;20215;-90
2022/02/12 00:23:39;;;;;;;26.77;11.80;;;4.80;54.40;;;;;;4996896;28;20170;-89
2022/02/12 00:26:05;;;;;;;24.97;12.37;;;4.80;55.00;;;;;;4994285;28;20194;-89
2022/02/12 00:28:30;;;;;;;25.63;11.23;;;4.70;55.70;;;;;;4993220;28;20190;-89
2022/02/12 00:30:59;;;;;;;27.27;11.97;;;4.70;56.20;;;;;;4980925;28;20183;-91
2022/02/12 00:36:47;;;;;;;27.07;12.70;;;4.70;55.60;;;;;;4982324;28;20254;-90
2022/02/12 00:39:13;;;;;;;26.60;12.40;;;4.40;59.90;;;;;;4982599;28;20183;-90
2022/02/12 00:41:40;;;;;;;24.23;11.83;;;4.40;63.70;;;;;;4981871;28;20241;-90
2022/02/12 00:44:06;;;;;;;25.67;12.10;;;4.50;61.80;;;;;;4982610;28;20562;-90
2022/02/12 00:46:35;;;;;;;28.10;12.03;;;4.70;61.00;;;;;;4981087;28;20234;-90
2022/02/12 00:49:12;;;;;;;23.33;12.53;;;4.80;61.10;;;;;;4983200;28;20210;-90
2022/02/12 00:51:38;;;;;;;24.67;11.53;;;4.70;59.90;;;;;;4982949;28;20211;-90
2022/02/12 00:54:06;;;;;;;27.30;11.83;;;4.60;57.50;;;;;;4982684;28;20183;-90
2022/02/12 00:56:32;;;;;;;22.93;11.27;;;4.60;58.30;;;;;;4983019;28;20248;-90
2022/02/12 00:58:59;;;;;;;21.57;10.93;;;4.60;58.90;;;;;;4983109;28;20211;-91
2022/02/12 01:01:26;;;;;;;28.37;11.10;;;4.40;61.50;;;;;;4965703;28;20656;-90
2022/02/12 01:03:53;;;;;;;19.33;10.57;;;4.50;65.40;;;;;;4997862;28;20187;-90
2022/02/12 01:06:20;;;;;;;22.07;11.40;;;4.30;65.20;;;;;;4998412;28;20171;-90
2022/02/12 01:08:46;;;;;;;24.87;10.67;;;4.20;68.00;;;;;;4998069;28;20184;-90
2022/02/12 01:11:13;;;;;;;25.03;11.20;;;4.20;67.40;;;;;;4997487;28;20290;-90
2022/02/12 01:13:40;;;;;;;19.37;10.20;;;4.20;69.00;;;;;;4964637;28;20615;-90
2022/02/12 01:16:06;;;;;;;20.53;9.93;;;4.30;69.70;;;;;;4996848;28;20207;-90
2022/02/12 01:18:32;;;;;;;27.90;11.37;;;4.40;68.90;;;;;;4981049;28;20180;-90
2022/02/12 01:21:00;;;;;;;23.23;10.37;;;4.30;64.90;;;;;;4997372;28;20219;-89
2022/02/12 01:23:27;;;;;;;18.90;10.37;;;4.20;64.40;;;;;;4997112;28;20200;-90
2022/02/12 01:25:55;;;;;;;24.10;11.23;;;4.10;66.10;;;;;;4996097;28;20187;-92
2022/02/12 01:28:21;;;;;;;20.47;11.47;;;4.30;67.60;;;;;;4998620;28;20272;-91
2022/02/12 01:30:48;;;;;;;21.63;11.00;;;4.30;67.10;;;;;;4966906;28;20176;-91
2022/02/12 01:33:14;;;;;;;22.77;11.27;;;4.20;65.90;;;;;;4989696;28;20772;-88
2022/02/12 01:35:40;;;;;;;20.37;11.63;;;4.40;66.90;;;;;;4994475;28;20159;-90
2022/02/12 01:38:06;;;;;;;25.47;11.93;;;4.40;62.80;;;;;;4994017;28;20180;-89
2022/02/12 01:40:34;;;;;;;21.83;11.83;;;4.50;57.60;;;;;;4990443;28;20672;-92
2022/02/12 01:43:02;;;;;;;21.47;11.70;;;4.70;53.40;;;;;;4988559;28;20202;-91
2022/02/12 01:45:30;;;;;;;28.20;12.60;;;4.50;53.60;;;;;;4988679;28;20203;-91
2022/02/12 01:47:56;;;;;;;24.50;12.17;;;4.80;53.30;;;;;;4994640;28;20243;-90
2022/02/12 01:50:22;;;;;;;23.90;12.27;;;4.60;52.50;;;;;;4981305;28;20183;-92
2022/02/12 01:52:50;;;;;;;23.07;11.80;;;4.50;53.80;;;;;;4996437;28;20242;-90
2022/02/12 01:55:17;;;;;;;22.00;11.77;;;4.40;52.30;;;;;;5001040;28;20179;-92
2022/02/12 01:57:44;;;;;;;24.70;11.87;;;4.50;54.00;;;;;;4999872;28;20176;-91
2022/02/12 02:00:14;;;;;;;21.87;11.30;;;4.30;55.80;;;;;;4988237;28;20585;-92
2022/02/12 02:02:40;;;;;;;22.20;10.90;;;4.30;57.00;;;;;;4984019;28;20187;-92
2022/02/12 02:05:14;;;;;;;23.13;11.27;;;4.30;57.80;;;;;;4980804;28;20179;-92
2022/02/12 02:07:59;;;;;;;28.10;12.37;;;4.30;58.20;;;;;;4980936;28;20643;-92
2022/02/12 02:10:28;;;;;;;23.17;11.53;;;4.30;57.80;;;;;;4997291;28;20251;-92
2022/02/12 02:12:53;;;;;;;23.57;11.83;;;4.20;57.80;;;;;;4998145;28;20172;-88
2022/02/12 02:15:19;;;;;;;22.47;11.13;;;4.30;57.20;;;;;;4999433;28;20658;-89
2022/02/12 02:17:46;;;;;;;18.23;11.37;;;4.20;56.70;;;;;;5002221;28;20179;-92
2022/02/12 02:20:11;;;;;;;18.47;11.40;;;4.20;58.60;;;;;;4998626;28;20634;-89
2022/02/12 02:22:54;;;;;;;25.33;11.20;;;4.20;58.40;;;;;;4981467;28;20183;-90
2022/02/12 02:25:20;;;;;;;20.93;10.97;;;4.20;57.70;;;;;;4983063;28;20172;-91
2022/02/12 02:27:46;;;;;;;21.30;10.30;;;4.30;56.60;;;;;;4982511;28;20210;-89
2022/02/12 02:30:19;;;;;;;29.67;12.10;;;4.30;56.20;;;;;;4983633;28;20650;-90
2022/02/12 02:32:45;;;;;;;20.83;10.20;;;4.20;55.20;;;;;;4985604;28;20155;-91
2022/02/12 02:35:13;;;;;;;19.17;10.53;;;4.30;54.60;;;;;;4980298;28;20195;-91
2022/02/12 02:37:42;;;;;;;26.67;10.23;;;4.40;52.30;;;;;;4996565;28;20191;-92
2022/02/12 02:40:16;;;;;;;19.93;9.63;;;4.30;50.90;;;;;;5000182;28;20239;-91
2022/02/12 02:42:49;;;;;;;23.00;10.23;;;4.30;52.30;;;;;;4982009;28;20188;-93
2022/02/12 02:45:16;;;;;;;19.97;10.77;;;4.10;52.20;;;;;;4996074;28;20188;-92
2022/02/12 02:47:43;;;;;;;23.33;10.20;;;4.10;53.10;;;;;;4999803;28;20172;-92
2022/02/12 02:56:00;;;;;;;22.40;10.30;;;4.10;57.60;;;;;;4980707;28;20182;-92
2022/02/12 02:58:39;;;;;;;21.40;10.27;;;4.10;56.00;;;;;;4970494;28;20186;-93
2022/02/12 03:01:07;;;;;;;21.27;10.10;;;4.10;56.90;;;;;;4992983;28;20231;-89
2022/02/12 03:03:33;;;;;;;21.03;10.80;;;3.80;62.30;;;;;;4991691;28;20178;-91
2022/02/12 03:06:02;;;;;;;22.37;10.80;;;3.70;65.70;;;;;;4994002;28;20160;-91
2022/02/12 03:08:29;;;;;;;21.33;9.87;;;3.90;66.20;;;;;;4991132;28;20176;-90
2022/02/12 03:10:55;;;;;;;23.47;10.03;;;4.10;61.80;;;;;;4990184;28;20184;-93
2022/02/12 03:13:21;;;;;;;18.40;9.83;;;4.00;58.00;;;;;;4979966;28;20207;-90
2022/02/12 03:15:50;;;;;;;30.37;10.67;;;3.80;59.10;;;;;;4978870;28;20171;-90
2022/02/12 03:18:16;;;;;;;22.87;9.70;;;3.80;62.70;;;;;;4980011;28;20183;-89
2022/02/12 03:20:42;;;;;;;21.43;9.70;;;3.80;64.00;;;;;;4980566;28;20220;-90
2022/02/12 03:23:09;;;;;;;22.20;9.50;;;3.80;66.20;;;;;;4980932;28;20254;-90
2022/02/12 03:25:35;;;;;;;22.00;9.33;;;3.50;68.00;;;;;;4979117;28;20175;-89
2022/02/12 03:28:03;;;;;;;19.37;9.73;;;3.50;69.60;;;;;;4984372;28;20178;-88
2022/02/12 03:30:46;;;;;;;16.70;9.17;;;3.50;69.50;;;;;;4990837;28;20217;-92
2022/02/12 03:33:13;;;;;;;17.47;8.67;;;3.60;69.90;;;;;;4994949;28;20184;-91
2022/02/12 03:35:39;;;;;;;15.90;7.77;;;3.70;69.20;;;;;;4984744;28;20172;-92
2022/02/12 03:38:16;;;;;;;21.93;8.50;;;3.60;67.00;;;;;;4979108;28;20184;-92
2022/02/12 03:40:48;;;;;;;18.07;8.33;;;3.50;66.70;;;;;;4979978;28;20211;-92
2022/02/12 03:43:15;;;;;;;17.80;7.80;;;3.50;65.90;;;;;;4991103;28;20203;-91
2022/02/12 03:45:42;;;;;;;20.27;8.93;;;3.60;65.70;;;;;;4989061;28;20196;-91
2022/02/12 03:48:08;;;;;;;26.90;9.53;;;3.90;59.10;;;;;;4992138;28;20187;-91
2022/02/12 03:50:34;;;;;;;21.30;8.70;;;4.00;53.50;;;;;;4985189;28;20183;-91
2022/02/12 03:53:02;;;;;;;20.10;8.53;;;4.10;51.80;;;;;;4982316;28;20179;-91
2022/02/12 03:55:28;;;;;;;20.63;8.73;;;4.10;48.50;;;;;;4978319;28;20178;-93
2022/02/12 03:57:55;;;;;;;21.70;9.40;;;4.10;49.20;;;;;;4976564;28;20180;-92
2022/02/12 04:00:21;;;;;;;17.50;8.40;;;4.10;46.60;;;;;;4977617;28;20239;-92
2022/02/12 04:02:47;;;;;;;15.77;8.77;;;3.80;50.40;;;;;;4976803;28;20594;-91
2022/02/12 04:05:16;;;;;;;17.37;9.07;;;3.60;56.70;;;;;;4978468;28;20218;-90
2022/02/12 04:07:45;;;;;;;18.87;8.33;;;3.60;59.60;;;;;;4981328;28;20176;-91
2022/02/12 04:10:13;;;;;;;19.43;8.10;;;3.60;62.90;;;;;;4998480;28;20160;-91
2022/02/12 04:12:39;;;;;;;17.17;7.97;;;3.80;62.60;;;;;;4998666;28;20215;-93
2022/02/12 04:15:14;;;;;;;18.23;7.97;;;3.80;61.90;;;;;;4995168;28;20191;-91
2022/02/12 04:17:40;;;;;;;17.87;8.33;;;4.00;59.10;;;;;;4990843;28;20231;-90
2022/02/12 04:20:11;;;;;;;18.90;8.17;;;4.20;53.80;;;;;;4981112;28;20262;-93
2022/02/12 04:22:41;;;;;;;16.00;7.43;;;4.10;51.00;;;;;;4983657;28;20171;-90
2022/02/12 04:25:16;;;;;;;17.77;8.83;;;4.20;48.30;;;;;;4982631;28;20239;-91
2022/02/12 04:27:42;;;;;;;21.53;8.50;;;4.20;44.60;;;;;;4984391;28;20171;-91
2022/02/12 04:30:11;;;;;;;14.90;8.17;;;4.20;43.80;;;;;;4992800;28;20175;-91
2022/02/12 04:32:38;;;;;;;23.47;7.50;;;4.20;44.10;;;;;;4992456;28;20174;-92
2022/02/12 04:35:04;;;;;;;22.23;7.93;;;4.20;43.60;;;;;;4992828;28;20180;-90
2022/02/12 04:37:31;;;;;;;16.67;7.67;;;4.10;45.20;;;;;;4980189;28;20195;-91
2022/02/12 04:39:58;;;;;;;18.93;8.07;;;4.00;46.10;;;;;;4976510;28;20211;-91
2022/02/12 04:42:23;;;;;;;16.97;7.77;;;3.90;50.30;;;;;;4976036;28;20656;-92
2022/02/12 04:44:52;;;;;;;16.80;7.73;;;3.90;53.50;;;;;;4976656;28;20230;-89
2022/02/12 04:47:19;;;;;;;17.60;7.13;;;4.00;51.80;;;;;;4978583;28;20642;-90
2022/02/12 04:49:46;;;;;;;13.60;6.63;;;4.20;46.60;;;;;;4978468;28;20216;-92
2022/02/12 04:52:16;;;;;;;17.27;7.00;;;4.00;45.30;;;;;;4960764;28;20184;-91
2022/02/12 04:54:43;;;;;;;15.53;7.00;;;3.90;50.80;;;;;;4977436;28;20203;-92
2022/02/12 04:57:15;;;;;;;15.87;6.97;;;3.50;55.90;;;;;;4976675;28;20235;-91
2022/02/12 04:59:42;;;;;;;15.33;6.27;;;3.60;59.80;;;;;;4977040;28;20207;-92
2022/02/12 05:02:08;;;;;;;10.97;5.33;;;3.40;60.90;;;;;;4976954;28;20225;-90
2022/02/12 05:04:34;;;;;;;13.83;5.67;;;3.40;62.40;;;;;;4976638;28;20179;-92
2022/02/12 05:07:00;;;;;;;16.57;5.77;;;3.30;63.70;;;;;;4977891;28;20640;-92
2022/02/12 05:09:26;;;;;;;15.93;6.10;;;3.40;62.80;;;;;;4977013;28;20199;-91
2022/02/12 05:11:54;;;;;;;16.60;6.03;;;3.40;60.50;;;;;;4978064;28;20187;-90
2022/02/12 05:14:20;;;;;;;14.77;5.93;;;3.40;59.10;;;;;;4977427;28;20653;-92
2022/02/12 05:16:46;;;;;;;11.90;5.10;;;3.40;57.60;;;;;;4977412;28;20214;-91
2022/02/12 05:19:12;;;;;;;10.70;5.50;;;3.40;57.30;;;;;;4964671;28;20641;-91
2022/02/12 05:21:40;;;;;;;15.40;5.63;;;3.40;55.30;;;;;;4981235;28;20242;-91
2022/02/12 05:24:07;;;;;;;11.63;4.90;;;3.60;54.20;;;;;;4984472;28;20228;-92
2022/02/12 05:26:33;;;;;;;12.87;5.37;;;3.50;53.50;;;;;;4987965;28;20180;-92
2022/02/12 05:28:59;;;;;;;12.80;4.77;;;3.70;52.10;;;;;;4980725;28;20632;-92
2022/02/12 05:31:25;;;;;;;11.80;4.73;;;3.80;51.30;;;;;;4990261;28;20171;-90
2022/02/12 05:33:50;;;;;;;9.97;4.53;;;4.00;49.50;;;;;;4994568;28;20175;-91
2022/02/12 05:36:16;;;;;;;17.13;6.03;;;3.90;46.60;;;;;;4981830;28;20171;-94
2022/02/12 05:38:45;;;;;;;14.50;6.00;;;4.10;43.60;;;;;;4983327;28;20172;-91
2022/02/12 05:41:13;;;;;;;17.20;7.37;;;4.00;37.00;;;;;;4984050;28;20231;-93
2022/02/12 05:43:39;;;;;;;18.03;6.63;;;3.80;37.90;;;;;;4985674;28;20195;-92
2022/02/12 05:46:06;;;;;;;15.47;6.43;;;3.70;39.20;;;;;;4987167;28;20176;-91
2022/02/12 05:48:33;;;;;;;16.77;7.23;;;3.60;42.10;;;;;;4970262;28;20238;-91
2022/02/12 05:50:59;;;;;;;14.53;6.33;;;3.50;44.80;;;;;;4984714;28;20267;-93
2022/02/12 05:53:34;;;;;;;18.47;6.27;;;3.70;44.80;;;;;;4998828;28;20172;-91
2022/02/12 05:56:00;;;;;;;16.67;7.03;;;3.40;46.70;;;;;;5000973;28;20163;-91
2022/02/12 05:58:27;;;;;;;19.00;6.63;;;3.60;48.50;;;;;;4999452;28;20167;-90
2022/02/12 06:00:53;;;;;;;16.23;5.87;;;3.40;47.70;;;;;;5000394;28;20196;-92
2022/02/12 06:03:42;;;;;;;14.10;6.20;;;3.40;48.80;;;;;;4997151;28;20176;-91
2022/02/12 06:06:58;;;;;;;12.07;5.23;;;3.40;48.10;;;;;;5011234;28;20191;-89
2022/02/12 06:10:10;;;;;;;13.17;5.50;;;3.30;49.20;;;;;;4996639;28;20172;-90
2022/02/12 06:12:37;;;;;;;16.23;6.77;;;3.40;48.40;;;;;;4992571;28;20178;-92
2022/02/12 06:15:04;;;;;;;14.60;6.00;;;3.40;46.90;;;;;;4985004;28;20210;-92
2022/02/12 06:17:29;;;;;;;18.20;6.87;;;3.30;46.80;;;;;;4982301;28;20172;-91
2022/02/12 06:20:08;;;;;;;15.27;6.37;;;3.30;47.50;;;;;;4982889;28;20551;-90
2022/02/12 06:22:34;;;;;;;14.13;6.30;;;3.30;49.90;;;;;;4985113;28;20170;-91
2022/02/12 06:25:00;;;;;;;15.97;5.97;;;3.10;50.10;;;;;;4995087;28;20615;-90
2022/02/12 06:27:27;;;;;;;19.60;6.23;;;3.20;51.80;;;;;;4990936;28;20221;-91
2022/02/12 06:30:02;;;;;;;15.50;6.83;;;3.10;53.60;;;;;;4990628;28;20270;-92
2022/02/12 06:32:31;;;;;;;19.60;6.40;;;3.30;53.30;;;;;;4968614;28;20550;-93
2022/02/12 06:35:00;;;;;;;15.27;6.40;;;3.40;46.80;;;;;;4979444;28;20663;-92
2022/02/12 06:37:29;;;;;;;20.40;7.97;;;3.40;46.70;;;;;;4981320;28;20210;-91
2022/02/12 06:39:56;;;;;;;18.23;6.50;;;3.10;52.20;;;;;;4979229;28;20731;-92
2022/02/12 06:42:21;;;;;;;16.23;6.50;;;3.00;55.20;;;;;;4979168;28;20199;-92
2022/02/12 06:44:47;;;;;;;15.47;5.90;;;3.10;55.50;;;;;;4977650;28;20199;-92
2022/02/12 06:47:21;;;;;;;13.37;5.80;;;3.00;56.70;;;;;;4979094;28;20186;-91
2022/02/12 06:49:46;;;;;;;14.20;5.67;;;3.00;57.20;;;;;;4978339;28;20632;-92
2022/02/12 06:52:12;;;;;;;12.53;5.50;;;3.00;57.30;;;;;;4979025;28;20204;-92
2022/02/12 06:54:40;;;;;;;13.63;5.70;;;3.00;56.60;;;;;;4981245;28;20175;-93
2022/02/12 06:57:06;;;;;;;12.57;5.90;;;3.20;56.80;;;;;;4969409;28;20207;-91
2022/02/12 06:59:35;;;;;;;14.37;5.53;;;3.20;56.70;;;;;;5001464;28;20176;-91
2022/02/12 07:02:01;;;;;;;14.63;5.40;;;3.30;55.40;;;;;;4994562;28;20176;-91
2022/02/12 07:04:30;;;;;;;13.97;5.67;;;3.10;53.60;;;;;;4996137;28;20172;-91
2022/02/12 07:06:56;;;;;;;16.87;5.50;;;3.00;52.60;;;;;;4996854;28;20176;-93
2022/02/12 07:09:22;;;;;;;14.13;5.40;;;3.30;54.00;;;;;;5000544;28;20302;-94
2022/02/12 07:11:48;;;;;;;13.03;5.60;;;3.10;52.00;;;;;;4984666;28;20533;-92
2022/02/12 07:14:14;;;;;;;17.80;4.93;;;3.10;54.40;;;;;;4988598;28;20187;-91
2022/02/12 07:16:39;;;;;;;14.83;5.70;;;3.10;53.80;;;;;;4990574;28;20186;-91
2022/02/12 07:19:05;;;;;;;11.53;5.23;;;3.30;52.90;;;;;;4990431;28;20172;-92
2022/02/12 07:21:33;;;;;;;14.93;4.83;;;3.10;53.90;;;;;;4992230;28;20695;-92
2022/02/12 07:23:59;;;;;;;15.13;5.13;;;3.10;53.50;;;;;;4971462;28;20182;-92
2022/02/12 07:26:28;;;;;;;12.50;4.80;;;3.30;52.80;;;;;;4981183;28;20207;-92
2022/02/12 07:28:54;;;;;;;16.33;5.00;;;3.30;50.10;;;;;;4980597;28;20194;-93
2022/02/12 07:31:24;;;;;;;16.63;5.77;;;3.40;47.90;;;;;;4995329;28;20215;-91
2022/02/12 07:33:49;;;;;;;15.23;5.47;;;3.40;46.80;;;;;;4992433;28;20191;-91
2022/02/12 07:36:15;;;;;;;15.17;4.97;;;3.20;46.60;;;;;;4992443;28;20179;-93
2022/02/12 07:38:41;;;;;;;12.67;4.93;;;3.20;47.80;;;;;;4987487;28;20168;-92
2022/02/12 07:41:07;;;;;;;11.87;5.50;;;3.30;49.10;;;;;;4996753;28;20195;-92
2022/02/12 07:43:35;;;;;;;12.80;5.27;;;3.20;49.20;;;;;;4994269;28;20206;-93
2022/02/12 07:46:04;;;;;;;12.27;5.40;;;3.20;50.00;;;;;;4964554;28;20187;-93
2022/02/12 07:52:02;;;;;;;14.27;5.80;;;3.20;48.40;;;;;;4981247;28;20239;-92
2022/02/12 07:54:30;;;;;;;10.93;5.57;;;3.30;47.90;;;;;;4978912;28;20675;-93
2022/02/12 07:56:56;;;;;;;13.40;5.60;;;3.30;47.40;;;;;;4981242;28;20178;-92
2022/02/12 07:59:23;;;;;;;14.87;5.93;;;3.30;47.10;;;;;;4977870;28;20180;-91
2022/02/12 08:01:49;;;;;;;16.63;5.70;;;3.40;46.40;;;;;;4961748;28;20218;-93
2022/02/12 08:04:18;;;;;;;20.73;6.17;;;3.30;45.50;;;;;;4978570;28;20175;-93
2022/02/12 08:09:28;;;;;;;17.47;6.50;;;3.50;44.40;;;;;;4979286;28;20178;-92
2022/02/12 08:12:11;;;;;;;13.27;5.40;;;3.70;41.70;;;;;;4979288;28;20187;-92
2022/02/12 08:14:37;;;;;;;17.20;6.00;;;3.50;40.50;;;;;;4978178;28;20290;-93
2022/02/12 08:17:03;;;;;;;19.37;6.20;;;3.50;41.60;;;;;;4983584;28;20180;-91
2022/02/12 08:19:29;;;;;;;20.57;6.20;;;3.40;42.70;;;;;;4991752;28;20203;-90
2022/02/12 08:21:56;;;;;;;16.00;5.97;;;3.50;41.60;;;;;;4994264;28;20199;-91
2022/02/12 08:24:23;;;;;;;16.70;6.10;;;3.50;39.50;;;;;;4995130;28;20191;-91
2022/02/12 08:26:48;;;;;;;22.17;7.23;;;3.60;37.80;;;;;;4993695;28;20245;-90
2022/02/12 08:29:14;;;;;;;15.10;6.40;;;3.80;35.10;;;;;;4989343;28;20167;-92
2022/02/12 08:31:41;;;;;;;27.03;7.63;;;3.80;35.80;;;;;;4982546;28;20243;-90
2022/02/12 08:34:07;;;;;;;12.83;6.67;;;3.80;35.80;;;;;;4995672;28;20230;-89
2022/02/12 08:36:33;;;;;;;15.83;7.03;;;3.80;34.40;;;;;;4995199;28;20172;-92
2022/02/12 08:39:03;;;;;;;13.93;5.57;;;3.80;34.10;;;;;;4989592;28;20171;-90
2022/02/12 08:41:28;;;;;;;18.43;5.50;;;3.80;31.30;;;;;;4992461;28;20202;-92
2022/02/12 08:43:54;;;;;;;12.07;5.40;;;4.00;29.20;;;;;;4989561;28;20525;-93
2022/02/12 08:46:20;;;;;;;11.70;5.17;;;4.30;25.90;;;;;;4984761;28;20591;-92
2022/02/12 08:48:45;;;;;;;11.03;5.53;;;4.40;25.10;;;;;;4998802;28;20164;-91
2022/02/12 08:51:11;;;;;;;12.43;5.37;;;4.60;20.30;;;;;;5011598;28;20699;-88
2022/02/12 08:53:40;;;;;;;13.13;5.47;;;4.70;17.10;;;;;;5000650;28;20599;-93
2022/02/12 08:56:06;;;;;;;9.50;4.70;;;4.70;12.30;;;;;;4996031;28;20179;-92
2022/02/12 08:58:36;;;;;;;15.03;6.13;;;4.80;5.50;;;;;;4999260;28;20168;-92
2022/02/12 09:01:02;;;;;;;13.27;4.57;;;4.90;2.20;;;;;;4983390;28;20297;-92
2022/02/12 09:03:27;;;;;;;13.23;4.57;;;5.00;1.00;;;;;;4987124;28;20171;-92
2022/02/12 09:05:57;;;;;;;13.27;5.10;;;5.10;1.00;;;;;;4985674;28;20256;-94
2022/02/12 09:08:23;;;;;;;14.57;4.70;;;5.10;1.00;;;;;;4968304;28;20279;-91
2022/02/12 09:10:50;;;;;;;11.80;4.53;;;5.10;1.00;;;;;;4982942;28;20195;-93
2022/02/12 09:13:16;;;;;;;11.60;5.40;;;5.30;1.00;;;;;;4988726;28;20182;-95
2022/02/12 09:15:45;;;;;;;18.00;10.80;;;5.30;1.00;;;;;;5000966;28;20211;-94
2022/02/12 09:18:10;;;;;;;11.33;4.77;;;5.20;1.00;;;;;;5002083;28;20176;-95
2022/02/12 09:20:46;;;;;;;13.20;4.70;;;5.40;1.00;;;;;;4986221;28;20586;-92
2022/02/12 09:23:12;;;;;;;15.40;5.23;;;5.60;1.00;;;;;;4985222;28;20179;-94
2022/02/12 09:25:40;;;;;;;11.00;4.20;;;5.50;1.00;;;;;;4984520;28;20184;-96
2022/02/12 09:28:06;;;;;;;13.13;4.50;;;5.50;1.00;;;;;;4988069;28;20191;-95
2022/02/12 09:30:33;;;;;;;10.73;4.00;;;5.60;1.00;;;;;;4986167;28;20602;-93
2022/02/12 09:33:06;;;;;;;12.03;5.10;;;5.80;1.00;;;;;;5002736;28;20187;-92
2022/02/12 09:35:32;;;;;;;12.07;4.60;;;6.00;1.00;;;;;;5004241;28;20233;-94
2022/02/12 09:38:06;;;;;;;12.87;4.40;;;6.00;1.00;;;;;;5002463;28;20219;-93
2022/02/12 09:40:33;;;;;;;13.23;4.00;;;6.00;1.00;;;;;;5010116;28;20211;-93
2022/02/12 09:42:59;;;;;;;11.80;4.37;;;6.00;1.00;;;;;;5014090;28;20200;-92
2022/02/12 09:46:08;;;;;;;10.50;4.30;;;6.20;1.00;;;;;;4999943;28;20180;-94
2022/02/12 09:48:35;;;;;;;15.17;5.77;;;6.30;1.00;;;;;;5013608;28;20184;-93
2022/02/12 09:51:04;;;;;;;11.17;4.27;;;6.30;1.00;;;;;;4996899;28;20186;-92
2022/02/12 09:53:31;;;;;;;9.40;3.87;;;6.20;1.00;;;;;;5005210;28;20178;-90
2022/02/12 09:55:59;;;;;;;10.33;4.43;;;6.20;1.00;;;;;;5002995;28;20184;-91
2022/02/12 09:58:26;;;;;;;12.63;4.73;;;6.30;1.00;;;;;;5002681;28;20268;-91
2022/02/12 10:00:59;;;;;;;14.27;4.20;;;6.30;1.00;;;;;;5001498;28;20226;-90
2022/02/12 10:03:32;;;;;;;8.43;4.30;;;6.30;1.00;;;;;;4990415;28;20192;-91
2022/02/12 10:06:01;;;;;;;10.53;3.97;;;6.40;1.00;;;;;;4993879;28;20199;-92
2022/02/12 10:08:28;;;;;;;9.57;3.97;;;6.50;1.00;;;;;;4986371;28;20175;-92
2022/02/12 10:10:55;;;;;;;11.30;5.47;;;6.50;1.00;;;;;;4982762;28;20723;-90
2022/02/12 10:13:35;;;;;;;10.00;4.10;;;6.60;1.00;;;;;;5004296;28;21295;-91
2022/02/12 10:16:02;;;;;;;9.23;3.80;;;6.70;1.00;;;;;;4985010;28;20234;-89
2022/02/12 10:18:40;;;;;;;13.53;4.47;;;6.70;1.00;;;;;;4966276;28;20203;-91
2022/02/12 10:21:07;;;;;;;13.53;3.80;;;6.70;1.00;;;;;;5002393;28;20234;-91
2022/02/12 10:23:44;;;;;;;10.13;3.60;;;6.80;1.00;;;;;;5011864;28;20199;-89
2022/02/12 10:26:12;;;;;;;9.30;3.90;;;6.90;1.00;;;;;;5013268;28;20160;-90
2022/02/12 10:28:45;;;;;;;10.63;3.80;;;7.00;1.00;;;;;;5012023;28;20190;-91
2022/02/12 10:31:12;;;;;;;10.47;4.27;;;7.00;1.00;;;;;;4992933;28;20179;-89
2022/02/12 10:33:51;;;;;;;15.40;6.60;;;7.10;1.00;;;;;;5010902;28;20167;-89
2022/02/12 10:36:22;;;;;;;10.83;4.53;;;7.20;1.00;;;;;;5013737;28;20199;-89
2022/02/12 10:38:52;;;;;;;11.30;4.73;;;7.20;1.00;;;;;;4989477;28;20171;-90
2022/02/12 10:41:26;;;;;;;12.10;3.97;;;7.40;1.00;;;;;;4985401;28;20214;-91
2022/02/12 10:43:53;;;;;;;10.47;4.53;;;7.30;1.00;;;;;;4999897;28;20193;-92
2022/02/12 10:46:31;;;;;;;14.60;5.13;;;7.30;1.00;;;;;;5000843;28;20187;-90
2022/02/12 10:48:57;;;;;;;15.43;5.10;;;7.30;1.00;;;;;;4985003;28;20655;-89
2022/02/12 10:51:43;;;;;;;12.00;4.63;;;7.40;1.00;;;;;;4998867;28;20172;-90
2022/02/12 10:54:11;;;;;;;11.93;4.30;;;7.40;1.00;;;;;;4998432;28;20187;-91
2022/02/12 10:56:54;;;;;;;12.00;4.30;;;7.40;1.00;;;;;;5000626;28;20168;-89
2022/02/12 10:59:22;;;;;;;12.87;4.50;;;7.50;1.00;;;;;;5001338;28;20546;-89
2022/02/12 11:01:52;;;;;;;8.87;3.93;;;7.60;1.00;;;;;;4986679;28;20282;-91
2022/02/12 11:04:23;;;;;;;13.03;4.80;;;7.50;1.00;;;;;;5001851;28;20167;-92
2022/02/12 11:06:52;;;;;;;12.57;4.73;;;7.60;1.00;;;;;;4984196;28;20199;-91
2022/02/12 11:09:19;;;;;;;13.00;4.93;;;7.70;1.00;;;;;;4998501;28;20656;-89
2022/02/12 11:11:47;;;;;;;10.07;4.67;;;7.80;1.00;;;;;;5000185;28;20164;-87
2022/02/12 11:14:21;;;;;;;11.67;4.63;;;7.80;1.00;;;;;;5004579;28;20270;-89
2022/02/12 11:16:52;;;;;;;14.33;4.90;;;7.80;1.00;;;;;;4991658;28;20168;-88
2022/02/12 11:19:18;;;;;;;10.80;4.20;;;7.80;1.00;;;;;;5003411;28;20339;-92
2022/02/12 11:21:46;;;;;;;10.40;4.03;;;7.80;1.00;;;;;;4984118;28;20234;-92
2022/02/12 11:24:14;;;;;;;10.70;4.67;;;7.70;1.00;;;;;;5000493;28;20182;-90
2022/02/12 11:26:43;;;;;;;11.17;5.40;;;7.60;1.00;;;;;;4999426;28;20184;-92
2022/02/12 11:29:34;;;;;;;14.83;4.97;;;7.70;1.00;;;;;;4981953;28;20171;-93
2022/02/12 11:32:22;;;;;;;9.20;5.03;;;7.70;1.00;;;;;;4984564;28;20266;-90
2022/02/12 11:35:08;;;;;;;13.17;4.93;;;7.80;1.00;;;;;;4986189;28;20639;-89
2022/02/12 11:37:46;;;;;;;10.70;4.50;;;7.80;1.00;;;;;;4980846;28;20237;-89
2022/02/12 11:40:24;;;;;;;27.73;14.77;;;7.80;1.00;;;;;;4982843;28;20211;-90
2022/02/12 11:43:33;;;;;;;16.00;6.23;;;8.00;1.00;;;;;;4980410;28;20199;-87
2022/02/12 11:45:58;;;;;;;9.97;4.63;;;8.20;1.00;;;;;;4982410;28;20184;-91
2022/02/12 11:48:31;;;;;;;9.47;3.20;;;8.40;1.00;;;;;;4985281;28;20194;-87
2022/02/12 11:51:09;;;;;;;9.50;4.07;;;8.40;1.00;;;;;;4981080;28;20254;-92
2022/02/12 11:53:48;;;;;;;9.60;3.70;;;8.40;99.90;;;;;;4978981;28;20546;-91
2022/02/12 11:56:17;;;;;;;10.40;3.93;;;8.50;99.90;;;;;;4981213;28;20191;-92
2022/02/12 11:58:47;;;;;;;9.10;3.50;;;8.50;99.90;;;;;;4983607;28;20712;-90
2022/02/12 12:01:27;;;;;;;7.87;3.47;;;8.40;99.90;;;;;;4980289;28;20220;-91
2022/02/12 12:04:26;;;;;;;9.07;3.50;;;8.70;99.90;;;;;;4985470;28;20250;-89
2022/02/12 12:07:09;;;;;;;11.53;4.03;;;8.50;99.90;;;;;;4981332;28;20190;-91
2022/02/12 12:09:54;;;;;;;14.67;5.00;;;8.60;99.90;;;;;;4981785;28;20176;-93
2022/02/12 12:12:23;;;;;;;8.10;4.00;;;8.90;99.90;;;;;;4985113;28;20199;-91
2022/02/12 12:15:16;;;;;;;10.20;3.90;;;9.00;99.90;;;;;;4981946;28;20172;-89
2022/02/12 12:17:53;;;;;;;8.67;3.70;;;8.80;68.60;;;;;;4983278;28;20275;-92
2022/02/12 12:20:20;;;;;;;10.37;4.03;;;8.70;99.90;;;;;;4985155;28;20222;-91
2022/02/12 12:22:50;;;;;;;7.33;3.67;;;8.70;1.00;;;;;;4982412;28;20644;-90
2022/02/12 12:25:16;;;;;;;9.70;4.07;;;8.80;1.00;;;;;;4981570;28;20214;-90
2022/02/12 12:27:42;;;;;;;9.93;3.77;;;9.00;1.00;;;;;;4979832;28;20187;-92
2022/02/12 12:33:02;;;;;;;11.50;3.63;;;9.00;1.00;;;;;;4983713;28;20177;-90
2022/02/12 12:35:31;;;;;;;8.67;3.13;;;9.00;99.90;;;;;;4982352;28;20528;-91
2022/02/12 12:37:57;;;;;;;7.93;3.23;;;9.00;1.00;;;;;;4981858;28;20302;-91
2022/02/12 12:40:33;;;;;;;6.40;2.70;;;9.00;1.00;;;;;;4982651;28;20293;-90
2022/02/12 12:43:08;;;;;;;7.83;3.07;;;9.10;1.00;;;;;;4983068;28;20199;-92
2022/02/12 12:45:41;;;;;;;8.60;2.90;;;9.10;1.00;;;;;;4966112;28;20186;-89
2022/02/12 12:48:09;;;;;;;7.40;3.10;;;9.10;1.00;;;;;;4981774;28;20740;-91
2022/02/12 12:50:40;;;;;;;10.50;3.17;;;9.20;1.00;;;;;;4982667;28;20175;-91
2022/02/12 12:53:09;;;;;;;8.53;2.97;;;9.00;1.00;;;;;;4985325;28;20175;-90
2022/02/12 12:55:38;;;;;;;9.03;3.13;;;9.10;1.00;;;;;;4986168;28;20187;-92
2022/02/12 12:58:12;;;;;;;7.33;3.27;;;9.10;99.90;;;;;;4985483;28;20219;-92
2022/02/12 13:00:44;;;;;;;8.83;3.40;;;9.10;99.90;;;;;;4990429;28;20664;-90
2022/02/12 13:03:11;;;;;;;7.27;3.40;;;9.10;1.00;;;;;;4993492;28;20175;-92
2022/02/12 13:05:41;;;;;;;7.33;3.40;;;9.10;1.00;;;;;;4992996;28;20259;-91
2022/02/12 13:08:17;;;;;;;6.53;3.10;;;9.20;99.90;;;;;;4974899;28;20207;-91
2022/02/12 13:10:52;;;;;;;7.27;3.10;;;9.30;39.40;;;;;;4992133;28;20192;-91
2022/02/12 13:13:27;;;;;;;8.13;3.13;;;9.40;68.30;;;;;;5002320;28;20180;-91
2022/02/12 13:15:56;;;;;;;8.60;3.20;;;9.70;1.00;;;;;;4988238;28;20175;-90
2022/02/12 13:18:34;;;;;;;9.63;3.27;;;9.80;99.90;;;;;;4972422;28;20269;-92